RAPTOR3 YWLM-YWLM

Flight info

Callsign RAPTOR3
Flight time 0h 32m
Altitude 15000
Route YWLM YWLM
Aircraft F22/L-V/N

Departure

Time 2026-04-18 10:16
Airport Newcastle Airport (YWLM)

Arrival

Time 2026-04-18 10:48
Airport Newcastle Airport (YWLM)
Time Latitude Longitude Altitude Speed Heading
2026-04-18 09:55 -32.79582 151.84407 29 ft 0 kts 324°
2026-04-18 10:09 -32.79581 151.84406 29 ft 0 kts 324°
2026-04-18 10:10 -32.79586 151.84390 29 ft 8 kts 233°
2026-04-18 10:10 -32.79658 151.84291 31 ft 17 kts 225°
2026-04-18 10:10 -32.79742 151.84184 33 ft 18 kts 224°
2026-04-18 10:10 -32.79845 151.84126 31 ft 17 kts 143°
2026-04-18 10:11 -32.79928 151.84244 29 ft 20 kts 129°
2026-04-18 10:11 -32.80011 151.84359 29 ft 22 kts 130°
2026-04-18 10:11 -32.80116 151.84511 27 ft 25 kts 129°
2026-04-18 10:11 -32.80231 151.84676 28 ft 27 kts 129°
2026-04-18 10:12 -32.80353 151.84823 30 ft 12 kts 153°
2026-04-18 10:12 -32.80399 151.84825 30 ft 6 kts 206°
2026-04-18 10:13 -32.80400 151.84825 30 ft 0 kts 206°
2026-04-18 10:14 -32.80402 151.84823 30 ft 2 kts 208°
2026-04-18 10:14 -32.80430 151.84802 30 ft 8 kts 217°
2026-04-18 10:14 -32.80490 151.84743 30 ft 11 kts 230°
2026-04-18 10:15 -32.80482 151.84712 29 ft 0 kts 310°
2026-04-18 10:15 -32.80307 151.84471 27 ft 145 kts 310°
2026-04-18 10:15 -32.78877 151.82460 335 ft 511 kts 310°
2026-04-18 10:16 -32.75989 151.78876 1596 ft 601 kts 341°
2026-04-18 10:16 -32.72525 151.80028 1435 ft 524 kts 30°
2026-04-18 10:16 -32.69435 151.82237 1649 ft 583 kts 32°
2026-04-18 10:16 -32.67821 151.86798 1716 ft 590 kts 95°
2026-04-18 10:17 -32.69355 151.90689 1103 ft 488 kts 142°
2026-04-18 10:17 -32.72003 151.93075 1247 ft 472 kts 143°
2026-04-18 10:17 -32.74644 151.95362 1353 ft 479 kts 153°
2026-04-18 10:17 -32.77951 151.95279 1526 ft 497 kts 210°
2026-04-18 10:18 -32.80871 151.92877 1444 ft 522 kts 225°
2026-04-18 10:18 -32.83294 151.89568 1145 ft 543 kts 236°
2026-04-18 10:18 -32.85412 151.85761 986 ft 556 kts 232°
2026-04-18 10:18 -32.88862 151.83847 728 ft 562 kts 198°
2026-04-18 10:19 -32.92586 151.82483 650 ft 564 kts 208°
2026-04-18 10:19 -32.95791 151.79870 1375 ft 554 kts 218°
2026-04-18 10:19 -32.99237 151.76610 2198 ft 674 kts 219°
2026-04-18 10:19 -33.02654 151.73127 1546 ft 581 kts 252°
2026-04-18 10:20 -33.03831 151.68550 872 ft 571 kts 232°
2026-04-18 10:20 -33.06637 151.65284 1077 ft 558 kts 221°
2026-04-18 10:20 -33.10111 151.63984 1650 ft 529 kts 187°
2026-04-18 10:20 -33.13912 151.63457 2464 ft 612 kts 187°
2026-04-18 10:21 -33.18493 151.62776 3286 ft 720 kts 191°
2026-04-18 10:21 -33.23795 151.60852 2845 ft 815 kts 202°
2026-04-18 10:21 -33.28195 151.58622 3344 ft 593 kts 208°
2026-04-18 10:21 -33.31415 151.56109 3093 ft 519 kts 215°
2026-04-18 10:22 -33.34206 151.53722 2937 ft 473 kts 216°
2026-04-18 10:22 -33.36723 151.51557 1528 ft 425 kts 214°
2026-04-18 10:22 -33.39240 151.49463 882 ft 429 kts 215°
2026-04-18 10:22 -33.41676 151.47583 839 ft 402 kts 208°
2026-04-18 10:23 -33.44107 151.46218 871 ft 380 kts 201°
2026-04-18 10:23 -33.46724 151.45298 529 ft 425 kts 193°
2026-04-18 10:23 -33.49907 151.44144 412 ft 517 kts 206°
2026-04-18 10:23 -33.52508 151.41734 385 ft 437 kts 230°
2026-04-18 10:24 -33.53477 151.38683 566 ft 384 kts 249°
2026-04-18 10:24 -33.55031 151.36013 371 ft 408 kts 219°
2026-04-18 10:24 -33.57300 151.33838 392 ft 421 kts 219°
2026-04-18 10:24 -33.60107 151.33767 513 ft 468 kts 160°
2026-04-18 10:25 -33.62895 151.34070 981 ft 237 kts 150°
2026-04-18 10:25 -33.64306 151.33795 469 ft 303 kts 205°
2026-04-18 10:25 -33.66731 151.32296 372 ft 376 kts 190°
2026-04-18 10:25 -33.69361 151.31621 169 ft 384 kts 197°
2026-04-18 10:26 -33.71003 151.31550 685 ft 161 kts 72°
2026-04-18 10:26 -33.70249 151.32038 981 ft 162 kts 315°
2026-04-18 10:26 -33.70724 151.30354 628 ft 372 kts 191°
2026-04-18 10:26 -33.73195 151.30861 234 ft 379 kts 178°
2026-04-18 10:27 -33.76664 151.30484 445 ft 654 kts 186°
2026-04-18 10:27 -33.81215 151.30411 823 ft 610 kts 157°
2026-04-18 10:27 -33.84690 151.28871 360 ft 648 kts 281°
2026-04-18 10:27 -33.81118 151.25065 2334 ft 772 kts 321°
2026-04-18 10:28 -33.78112 151.20612 2746 ft 593 kts 282°
2026-04-18 10:28 -33.77482 151.16179 2204 ft 494 kts 282°
2026-04-18 10:28 -33.76705 151.12449 2491 ft 438 kts 286°
2026-04-18 10:28 -33.75763 151.08703 3116 ft 574 kts 287°
2026-04-18 10:29 -33.74030 151.04873 2575 ft 501 kts 236°
2026-04-18 10:29 -33.76174 151.01052 2183 ft 600 kts 244°
2026-04-18 10:29 -33.78123 150.96752 2222 ft 575 kts 240°
2026-04-18 10:29 -33.80085 150.92573 1621 ft 575 kts 241°
2026-04-18 10:30 -33.78137 150.90081 1724 ft 688 kts 56°
2026-04-18 10:30 -33.80091 150.91403 3112 ft 583 kts 280°
2026-04-18 10:30 -33.78611 150.92915 3421 ft 682 kts 151°
2026-04-18 10:30 -33.79492 150.89637 3724 ft 753 kts 328°
2026-04-18 10:31 -33.78063 150.83907 4378 ft 759 kts 278°
2026-04-18 10:31 -33.80927 150.80669 1912 ft 581 kts 206°
2026-04-18 10:31 -33.82649 150.77029 672 ft 480 kts 258°
2026-04-18 10:31 -33.83326 150.73843 2189 ft 50 kts 258°
2026-04-18 10:32 -33.83746 150.72884 3516 ft 157 kts 245°
2026-04-18 10:32 -33.84180 150.71350 2973 ft 166 kts 351°
2026-04-18 10:32 -33.84100 150.71240 851 ft 183 kts 136°
2026-04-18 10:32 -33.83413 150.73551 431 ft 220 kts 73°
2026-04-18 10:33 -33.83071 150.75096 247 ft 206 kts 74°
2026-04-18 10:33 -33.82964 150.75615 2048 ft 23 kts 125°
2026-04-18 10:33 -33.82779 150.76680 3913 ft 286 kts 75°
2026-04-18 10:33 -33.83439 150.80152 5030 ft 599 kts 132°
2026-04-18 10:34 -33.86561 150.84561 6738 ft 754 kts 115°
2026-04-18 10:34 -33.88242 150.90370 6284 ft 698 kts 76°
2026-04-18 10:34 -33.85421 150.94331 2252 ft 584 kts 54°
2026-04-18 10:34 -33.83404 150.98151 904 ft 503 kts 67°
2026-04-18 10:35 -33.82926 151.02532 427 ft 607 kts 93°
2026-04-18 10:35 -33.83461 151.07452 567 ft 616 kts 98°
2026-04-18 10:35 -33.84062 151.12645 508 ft 620 kts 96°
2026-04-18 10:35 -33.84621 151.17887 215 ft 646 kts 98°
2026-04-18 10:36 -33.85634 151.22919 2581 ft 623 kts 96°
2026-04-18 10:36 -33.84911 151.27969 4195 ft 611 kts 68°
2026-04-18 10:36 -33.82018 151.31364 3450 ft 601 kts 15°
2026-04-18 10:36 -33.77876 151.31881 3170 ft 600 kts
2026-04-18 10:37 -33.73840 151.31021 635 ft 635 kts 332°
2026-04-18 10:37 -33.70085 151.31255 249 ft 555 kts 28°
2026-04-18 10:37 -33.66690 151.32355 314 ft 502 kts 21°
2026-04-18 10:37 -33.62709 151.33062 1425 ft 673 kts 324°
2026-04-18 10:38 -33.59055 151.29507 7002 ft 689 kts 334°
2026-04-18 10:38 -33.54547 151.28719 10937 ft 652 kts 14°
2026-04-18 10:38 -33.50206 151.30181 12835 ft 653 kts 17°
2026-04-18 10:38 -33.45294 151.31796 10879 ft 816 kts 13°
2026-04-18 10:39 -33.39186 151.33678 10332 ft 947 kts 14°
2026-04-18 10:39 -33.33329 151.35478 10864 ft 974 kts 14°
2026-04-18 10:39 -33.32203 151.35818 10951 ft 981 kts 14°
2026-04-18 10:39 -33.27084 151.37340 11695 ft 785 kts 14°
2026-04-18 10:40 -33.22097 151.38825 12868 ft 727 kts 14°
2026-04-18 10:40 -33.17077 151.40345 14132 ft 755 kts 14°
2026-04-18 10:40 -33.12058 151.42325 15615 ft 762 kts 23°
2026-04-18 10:40 -33.08151 151.45893 11594 ft 660 kts 41°
2026-04-18 10:41 -33.05086 151.49312 9295 ft 561 kts 44°
2026-04-18 10:41 -33.02515 151.52434 8687 ft 493 kts 44°
2026-04-18 10:41 -33.00203 151.55108 8645 ft 434 kts 44°
2026-04-18 10:41 -32.98147 151.57485 8633 ft 389 kts 44°
2026-04-18 10:42 -32.96314 151.59598 8582 ft 355 kts 44°
2026-04-18 10:42 -32.94615 151.61573 8467 ft 327 kts 44°
2026-04-18 10:42 -32.93045 151.63406 8249 ft 306 kts 44°
2026-04-18 10:42 -32.91555 151.65131 7938 ft 290 kts 44°
2026-04-18 10:43 -32.90143 151.66757 7581 ft 276 kts 44°
2026-04-18 10:43 -32.88602 151.68541 7167 ft 418 kts 44°
2026-04-18 10:43 -32.86901 151.71931 6159 ft 574 kts 121°
2026-04-18 10:43 -32.88834 151.75831 3889 ft 499 kts 89°
2026-04-18 10:44 -32.90151 151.78736 3397 ft 356 kts 97°
2026-04-18 10:44 -32.89757 151.81181 3261 ft 244 kts 31°
2026-04-18 10:44 -32.88595 151.82709 3484 ft 333 kts 63°
2026-04-18 10:44 -32.87517 151.85531 3690 ft 348 kts 66°
2026-04-18 10:45 -32.86409 151.87729 2988 ft 272 kts 30°
2026-04-18 10:45 -32.84655 151.88281 1774 ft 265 kts 359°
2026-04-18 10:45 -32.82989 151.87884 847 ft 221 kts 335°
2026-04-18 10:45 -32.81900 151.86843 323 ft 239 kts 304°
2026-04-18 10:46 -32.80885 151.85274 168 ft 204 kts 311°
2026-04-18 10:46 -32.80071 151.84163 70 ft 206 kts 310°
2026-04-18 10:46 -32.80824 151.82975 1003 ft 300 kts 196°
2026-04-18 10:46 -32.82227 151.83605 1461 ft 182 kts 143°
2026-04-18 10:47 -32.82891 151.84712 1512 ft 151 kts 82°
2026-04-18 10:47 -32.82394 151.85829 1073 ft 222 kts 38°
2026-04-18 10:47 -32.81125 151.85684 454 ft 172 kts 302°
2026-04-18 10:47 -32.80455 151.84695 44 ft 140 kts 310°
2026-04-18 10:48 -32.79972 151.84013 31 ft 65 kts 311°
2026-04-18 10:48 -32.79783 151.83981 30 ft 24 kts 62°
2026-04-18 10:48 -32.79693 151.84149 33 ft 25 kts 56°
2026-04-18 10:48 -32.79590 151.84323 30 ft 25 kts 39°
2026-04-18 10:49 -32.79530 151.84474 29 ft 20 kts 135°
2026-04-18 10:49 -32.79554 151.84459 29 ft 4 kts 327°
2026-04-18 10:49 -32.79552 151.84457 29 ft 0 kts 327°
2026-04-18 10:50 -32.79551 151.84456 29 ft 0 kts 327°